createdAt,value
2018-07-10T00:00:46.919Z,17.1
2018-07-10T00:01:46.268Z,17.2
2018-07-10T00:02:45.503Z,17.1
2018-07-10T00:03:44.510Z,17.2
2018-07-10T00:04:44.343Z,17.2
2018-07-10T00:05:43.679Z,17.2
2018-07-10T00:06:42.907Z,17.2
2018-07-10T00:07:42.235Z,17.2
2018-07-10T00:08:41.361Z,17.2
2018-07-10T00:09:41.099Z,17.2
2018-07-10T00:11:39.609Z,17.2
2018-07-10T00:12:38.625Z,17.2
2018-07-10T00:13:38.572Z,17.2
2018-07-10T00:14:37.696Z,17.1
2018-07-10T00:15:37.025Z,17.1
2018-07-10T00:16:36.485Z,17.1
2018-07-10T00:17:35.490Z,17.1
2018-07-10T00:18:35.216Z,17.1
2018-07-10T00:19:34.542Z,17.1
2018-07-10T00:20:33.666Z,17.1
2018-07-10T00:22:32.383Z,17.1
2018-07-10T00:23:31.820Z,17.1
2018-07-10T00:24:30.946Z,17.1
2018-07-10T00:25:30.175Z,17.1
2018-07-10T00:26:29.792Z,17.1
2018-07-10T00:27:29.124Z,17.1
2018-07-10T00:27:59.656Z,17.1
2018-07-10T00:28:30.299Z,17.1
2018-07-10T00:29:27.898Z,17.1
2018-07-10T00:30:27.238Z,17.1
2018-07-10T00:31:26.670Z,17.1
2018-07-10T00:32:26.152Z,17.1
2018-07-10T00:33:25.593Z,17.1
2018-07-10T00:34:24.422Z,17.1
2018-07-10T00:35:23.652Z,17
2018-07-10T00:36:23.390Z,17.1
2018-07-10T00:37:22.640Z,17
2018-07-10T00:38:21.967Z,17
2018-07-10T00:39:21.414Z,17
2018-07-10T00:40:20.845Z,17
2018-07-10T00:41:20.068Z,17
2018-07-10T00:42:19.294Z,17
2018-07-10T00:43:18.740Z,17
2018-07-10T00:44:17.651Z,17
2018-07-10T00:45:17.603Z,17
2018-07-10T00:46:16.825Z,17
2018-07-10T00:47:16.150Z,17
2018-07-10T00:48:15.365Z,17
2018-07-10T00:49:14.585Z,16.9
2018-07-10T00:50:13.919Z,17
2018-07-10T00:51:13.150Z,16.9
2018-07-10T00:52:12.978Z,16.9
2018-07-10T00:53:12.415Z,16.9
2018-07-10T00:54:11.358Z,16.9
2018-07-10T00:55:10.588Z,16.9
2018-07-10T00:56:09.927Z,16.9
2018-07-10T00:57:09.254Z,16.9
2018-07-10T00:58:08.682Z,16.9
2018-07-10T00:59:08.050Z,16.9
2018-07-10T01:00:07.492Z,16.9
2018-07-10T01:01:06.716Z,16.9
2018-07-10T01:02:05.831Z,16.9
2018-07-10T01:03:05.472Z,16.9
2018-07-10T01:04:04.586Z,16.9
2018-07-10T01:04:35.021Z,16.9
2018-07-10T01:05:05.765Z,16.9
2018-07-10T01:05:35.792Z,16.9
2018-07-10T01:06:06.217Z,16.8
2018-07-10T01:07:03.044Z,16.9
2018-07-10T01:08:02.416Z,16.9
2018-07-10T01:09:01.651Z,16.9
2018-07-10T01:10:00.775Z,16.8
2018-07-10T01:11:00.216Z,16.8
2018-07-10T01:11:59.542Z,16.8
2018-07-10T01:12:58.879Z,16.8
2018-07-10T01:13:58.095Z,16.8
2018-07-10T01:14:57.419Z,16.8
2018-07-10T01:15:56.855Z,16.8
2018-07-10T01:16:56.083Z,16.8
2018-07-10T01:17:55.412Z,16.8
2018-07-10T01:18:54.994Z,16.8
2018-07-10T01:19:54.295Z,16.9
2018-07-10T01:20:53.510Z,16.8
2018-07-10T01:21:52.732Z,16.8
2018-07-10T01:23:51.739Z,16.9
2018-07-10T01:24:22.500Z,16.9
2018-07-10T01:25:50.820Z,16.8
2018-07-10T01:26:49.656Z,16.8
2018-07-10T01:27:48.881Z,16.8
2018-07-10T01:28:48.099Z,16.8
2018-07-10T01:29:47.532Z,16.8
2018-07-10T01:30:46.962Z,16.8
2018-07-10T01:31:46.098Z,16.8
2018-07-10T01:32:45.435Z,16.8
2018-07-10T01:33:45.453Z,16.8
2018-07-10T01:34:44.284Z,16.8
2018-07-10T01:35:43.616Z,16.8
2018-07-10T01:36:42.832Z,16.8
2018-07-10T01:37:42.165Z,16.8
2018-07-10T01:39:40.462Z,16.8
2018-07-10T01:40:40.302Z,16.8
2018-07-10T01:41:39.415Z,16.8
2018-07-10T01:42:39.044Z,16.8
2018-07-10T01:43:38.483Z,16.8
2018-07-10T01:44:37.930Z,16.7
2018-07-10T01:45:37.143Z,16.7
2018-07-10T01:46:36.622Z,16.7
2018-07-10T01:47:35.951Z,16.7
2018-07-10T01:48:35.280Z,16.7
2018-07-10T01:49:34.501Z,16.7
2018-07-10T01:50:33.833Z,16.7
2018-07-10T01:51:33.056Z,16.7
2018-07-10T01:53:31.881Z,16.7
2018-07-10T01:54:31.213Z,16.7
2018-07-10T01:55:30.543Z,16.7
2018-07-10T01:56:30.078Z,16.7
2018-07-10T01:57:28.593Z,16.7
2018-07-10T01:58:28.316Z,16.7
2018-07-10T01:59:27.644Z,16.7
2018-07-10T02:00:26.873Z,16.7
2018-07-10T02:01:26.210Z,16.7
2018-07-10T02:02:25.542Z,16.7
2018-07-10T02:03:24.908Z,16.7
2018-07-10T02:04:24.034Z,16.7
2018-07-10T02:05:23.875Z,16.7
2018-07-10T02:05:54.422Z,16.7
2018-07-10T02:06:24.957Z,16.7
2018-07-10T02:06:55.605Z,16.7
2018-07-10T02:08:21.721Z,16.7
2018-07-10T02:09:21.063Z,16.7
2018-07-10T02:10:20.522Z,16.7
2018-07-10T02:11:19.836Z,16.6
2018-07-10T02:12:19.064Z,16.7
2018-07-10T02:13:18.185Z,16.6
2018-07-10T02:14:17.412Z,16.6
2018-07-10T02:15:17.241Z,16.6
2018-07-10T02:16:16.466Z,16.6
2018-07-10T02:18:15.305Z,16.6
2018-07-10T02:19:14.532Z,16.6
2018-07-10T02:20:13.863Z,16.7
2018-07-10T02:21:13.083Z,16.6
2018-07-10T02:22:12.311Z,16.7
2018-07-10T02:23:11.542Z,16.6
2018-07-10T02:24:10.989Z,16.6
2018-07-10T02:25:10.315Z,16.6
2018-07-10T02:26:09.540Z,16.6
2018-07-10T02:27:08.869Z,16.6
2018-07-10T02:28:08.594Z,16.6
2018-07-10T02:29:08.025Z,16.6
2018-07-10T02:30:06.761Z,16.6
2018-07-10T02:31:06.492Z,16.5
2018-07-10T02:32:05.993Z,16.5
2018-07-10T02:33:05.326Z,16.5
2018-07-10T02:34:04.567Z,16.5
2018-07-10T02:35:04.018Z,16.5
2018-07-10T02:36:03.149Z,16.5
2018-07-10T02:37:02.591Z,16.5
2018-07-10T02:38:01.828Z,16.5
2018-07-10T02:39:01.064Z,16.5
2018-07-10T02:40:00.398Z,16.5
2018-07-10T02:40:59.734Z,16.5
2018-07-10T02:42:58.356Z,16.5
2018-07-10T02:43:29.009Z,16.5
2018-07-10T02:43:59.584Z,16.5
2018-07-10T02:44:56.800Z,16.5
2018-07-10T02:45:56.253Z,16.5
2018-07-10T02:46:55.489Z,16.5
2018-07-10T02:47:55.222Z,16.5
2018-07-10T02:48:54.560Z,16.5
2018-07-10T02:49:53.884Z,16.5
2018-07-10T02:50:53.223Z,16.4
2018-07-10T02:51:52.666Z,16.4
2018-07-10T02:52:51.275Z,16.4
2018-07-10T02:53:51.212Z,16.4
2018-07-10T02:54:50.537Z,16.3
2018-07-10T02:55:49.777Z,16.3
2018-07-10T02:56:49.010Z,16.3
2018-07-10T02:57:48.334Z,16.3
2018-07-10T02:58:47.357Z,16.3
2018-07-10T02:59:47.098Z,16.2
2018-07-10T03:00:46.463Z,16.1
2018-07-10T03:01:45.416Z,16
2018-07-10T03:02:44.743Z,15.8
2018-07-10T03:03:44.362Z,15.6
2018-07-10T03:04:43.488Z,15.5
2018-07-10T03:05:43.346Z,15.3
2018-07-10T03:06:42.166Z,15.2
2018-07-10T03:07:41.494Z,15.1
2018-07-10T03:08:40.608Z,14.9
2018-07-10T03:09:40.446Z,14.7
2018-07-10T03:10:39.459Z,14.5
2018-07-10T03:11:38.707Z,14.4
2018-07-10T03:12:38.425Z,14.2
2018-07-10T03:13:37.641Z,14
2018-07-10T03:14:36.979Z,14
2018-07-10T03:15:36.310Z,13.9
2018-07-10T03:16:35.209Z,13.8
2018-07-10T03:17:34.431Z,13.8
2018-07-10T03:18:33.945Z,13.7
2018-07-10T03:19:33.272Z,13.6
2018-07-10T03:20:32.623Z,13.6
2018-07-10T03:21:31.894Z,13.6
2018-07-10T03:22:31.229Z,13.6
2018-07-10T03:23:30.564Z,13.5
2018-07-10T03:24:30.025Z,13.5
2018-07-10T03:25:00.000Z,13.5
2018-07-10T03:25:30.548Z,13.4
2018-07-10T03:26:28.467Z,13.3
2018-07-10T03:26:58.890Z,13.3
2018-07-10T03:27:29.210Z,13.3
2018-07-10T03:28:27.131Z,13.3
2018-07-10T03:29:26.260Z,13.3
2018-07-10T03:30:25.613Z,13.2
2018-07-10T03:31:25.060Z,13.2
2018-07-10T03:32:24.383Z,13.2
2018-07-10T03:33:23.711Z,13.1
2018-07-10T03:34:23.038Z,13.1
2018-07-10T03:35:21.973Z,12.9
2018-07-10T03:36:21.524Z,12.9
2018-07-10T03:36:51.659Z,12.9
2018-07-10T03:37:22.295Z,12.9
2018-07-10T03:38:19.994Z,12.8
2018-07-10T03:39:19.420Z,12.8
2018-07-10T03:40:18.642Z,12.8
2018-07-10T03:42:17.244Z,12.7
2018-07-10T03:43:16.061Z,12.7
2018-07-10T03:43:46.699Z,12.7
2018-07-10T03:44:17.449Z,12.7
2018-07-10T03:45:14.753Z,12.7
2018-07-10T03:46:14.189Z,12.7
2018-07-10T03:47:13.505Z,12.7
2018-07-10T03:48:12.927Z,12.6
2018-07-10T03:49:11.749Z,12.6
2018-07-10T03:50:10.964Z,12.6
2018-07-10T03:51:10.074Z,12.6
2018-07-10T03:52:09.796Z,12.6
2018-07-10T03:53:09.218Z,12.7
2018-07-10T03:54:08.145Z,12.6
2018-07-10T03:55:07.368Z,12.6
2018-07-10T03:56:06.690Z,12.6
2018-07-10T03:57:06.025Z,12.6
2018-07-10T03:58:05.251Z,12.6
2018-07-10T03:59:04.477Z,12.6
2018-07-10T04:00:03.810Z,12.6
2018-07-10T04:01:03.038Z,12.5
2018-07-10T04:02:02.261Z,12.5
2018-07-10T04:03:01.696Z,12.5
2018-07-10T04:04:00.938Z,12.5
2018-07-10T04:05:00.277Z,12.5
2018-07-10T04:05:59.497Z,12.5
2018-07-10T04:06:58.720Z,12.5
2018-07-10T04:07:57.943Z,12.5
2018-07-10T04:08:57.417Z,12.5
2018-07-10T04:09:56.142Z,12.5
2018-07-10T04:10:55.595Z,12.5
2018-07-10T04:11:55.236Z,12.5
2018-07-10T04:12:54.470Z,12.5
2018-07-10T04:13:53.286Z,12.5
2018-07-10T04:14:52.416Z,12.4
2018-07-10T04:15:51.850Z,12.4
2018-07-10T04:16:51.183Z,12.4
2018-07-10T04:17:50.491Z,12.4
2018-07-10T04:18:49.606Z,12.4
2018-07-10T04:19:49.031Z,12.4
2018-07-10T04:21:47.637Z,12.4
2018-07-10T04:22:46.854Z,12.4
2018-07-10T04:23:46.181Z,12.3
2018-07-10T04:24:45.181Z,12.3
2018-07-10T04:25:44.614Z,12.3
2018-07-10T04:26:43.943Z,12.3
2018-07-10T04:27:42.876Z,12.3
2018-07-10T04:28:42.201Z,12.3
2018-07-10T04:29:41.423Z,12.3
2018-07-10T04:30:40.421Z,12.3
2018-07-10T04:31:40.144Z,12.3
2018-07-10T04:32:10.671Z,12.3
2018-07-10T04:32:41.204Z,12.3
2018-07-10T04:34:37.798Z,12.3
2018-07-10T04:35:37.117Z,12.3
2018-07-10T04:36:36.543Z,12.3
2018-07-10T04:37:35.365Z,12.3
2018-07-10T04:38:34.586Z,12.3
2018-07-10T04:39:34.009Z,12.3
2018-07-10T04:40:33.235Z,12.4
2018-07-10T04:41:32.454Z,12.4
2018-07-10T04:42:31.779Z,12.4
2018-07-10T04:43:31.111Z,12.4
2018-07-10T04:44:30.337Z,12.4
2018-07-10T04:45:29.768Z,12.4
2018-07-10T04:46:28.277Z,12.4
2018-07-10T04:47:27.994Z,12.3
2018-07-10T04:48:27.214Z,12.3
2018-07-10T04:49:27.076Z,12.4
2018-07-10T04:50:25.391Z,12.4
2018-07-10T04:51:24.727Z,12.4
2018-07-10T04:52:24.165Z,12.4
2018-07-10T04:53:23.388Z,12.4
2018-07-10T04:54:22.611Z,12.3
2018-07-10T04:55:22.283Z,12.3
2018-07-10T04:56:21.271Z,12.3
2018-07-10T04:57:20.271Z,12.2
2018-07-10T04:58:19.498Z,12.2
2018-07-10T04:59:18.924Z,12.2
2018-07-10T05:00:18.364Z,12.2
2018-07-10T05:00:48.386Z,12.2
2018-07-10T05:01:19.021Z,12.2
2018-07-10T05:01:49.775Z,12.2
2018-07-10T05:02:20.014Z,12.2
2018-07-10T05:02:50.263Z,12.2
2018-07-10T05:03:20.888Z,12.2
2018-07-10T05:03:50.806Z,12.2
2018-07-10T05:05:14.437Z,12.3
2018-07-10T05:06:13.659Z,12.2
2018-07-10T05:07:12.870Z,12.3
2018-07-10T05:08:12.195Z,12.3
2018-07-10T05:09:11.405Z,12.3
2018-07-10T05:10:10.832Z,12.3
2018-07-10T05:11:09.660Z,12.3
2018-07-10T05:12:09.666Z,12.3
2018-07-10T05:12:39.289Z,12.3
2018-07-10T05:13:09.831Z,12.3
2018-07-10T05:13:40.366Z,12.3
2018-07-10T05:14:10.993Z,12.3
2018-07-10T05:14:41.170Z,12.3
2018-07-10T05:16:06.063Z,12.3
2018-07-10T05:17:05.190Z,12.3
2018-07-10T05:18:04.418Z,12.3
2018-07-10T05:19:03.739Z,12.3
2018-07-10T05:20:03.076Z,12.3
2018-07-10T05:21:01.798Z,12.3
2018-07-10T05:22:01.238Z,12.3
2018-07-10T05:23:00.737Z,12.4
2018-07-10T05:23:59.953Z,12.4
2018-07-10T05:24:59.379Z,12.4
2018-07-10T05:25:58.310Z,12.4
2018-07-10T05:26:57.636Z,12.4
2018-07-10T05:27:56.863Z,12.3
2018-07-10T05:28:56.529Z,12.3
2018-07-10T05:29:55.485Z,12.3
2018-07-10T05:30:54.195Z,12.4
2018-07-10T05:31:54.025Z,12.4
2018-07-10T05:32:53.347Z,12.4
2018-07-10T05:33:51.955Z,12.5
2018-07-10T05:34:51.375Z,12.4
2018-07-10T05:35:50.694Z,12.4
2018-07-10T05:36:50.021Z,12.5
2018-07-10T05:37:49.349Z,12.5
2018-07-10T05:38:48.779Z,12.5
2018-07-10T05:39:47.597Z,12.5
2018-07-10T05:40:46.810Z,12.5
2018-07-10T05:41:46.250Z,12.5
2018-07-10T05:42:45.681Z,12.5
2018-07-10T05:43:15.712Z,12.5
2018-07-10T05:43:46.348Z,12.5
2018-07-10T05:44:44.162Z,12.5
2018-07-10T05:45:43.088Z,12.6
2018-07-10T05:46:42.307Z,12.6
2018-07-10T05:47:41.521Z,12.7
2018-07-10T05:48:40.749Z,12.7
2018-07-10T05:49:40.080Z,12.7
2018-07-10T05:50:39.290Z,12.7
2018-07-10T05:51:38.905Z,12.7
2018-07-10T05:52:37.533Z,12.7
2018-07-10T05:53:08.165Z,12.7
2018-07-10T05:53:38.585Z,12.7
2018-07-10T05:54:09.119Z,12.7
2018-07-10T05:55:35.623Z,12.6
2018-07-10T05:56:34.759Z,12.6
2018-07-10T05:57:34.088Z,12.6
2018-07-10T05:58:34.231Z,12.6
2018-07-10T06:00:31.962Z,12.6
2018-07-10T06:01:31.293Z,12.5
2018-07-10T06:02:30.228Z,12.5
2018-07-10T06:03:29.560Z,12.6
2018-07-10T06:04:28.889Z,12.6
2018-07-10T06:06:27.549Z,12.6
2018-07-10T06:07:26.874Z,12.7
2018-07-10T06:08:25.809Z,12.7
2018-07-10T06:09:25.036Z,12.7
2018-07-10T06:10:24.533Z,12.7
2018-07-10T06:11:23.467Z,12.7
2018-07-10T06:12:22.691Z,12.7
2018-07-10T06:13:21.917Z,12.6
2018-07-10T06:14:21.349Z,12.7
2018-07-10T06:15:20.679Z,12.7
2018-07-10T06:16:20.501Z,12.7
2018-07-10T06:17:18.795Z,12.8
2018-07-10T06:18:17.918Z,12.8
2018-07-10T06:19:17.034Z,12.9
2018-07-10T06:20:16.864Z,12.9
2018-07-10T06:21:16.189Z,13
2018-07-10T06:22:15.479Z,13
2018-07-10T06:23:14.196Z,13
2018-07-10T06:24:13.522Z,13
2018-07-10T06:25:12.852Z,13
2018-07-10T06:26:12.296Z,13
2018-07-10T06:27:11.731Z,13
2018-07-10T06:28:10.860Z,13
2018-07-10T06:29:09.737Z,13.1
2018-07-10T06:30:08.953Z,13
2018-07-10T06:31:08.392Z,13
2018-07-10T06:32:07.668Z,13.1
2018-07-10T06:33:07.106Z,13.1
2018-07-10T06:34:06.333Z,13.1
2018-07-10T06:35:05.539Z,13.1
2018-07-10T06:36:04.870Z,13.2
2018-07-10T06:37:03.782Z,13.2
2018-07-10T06:38:03.000Z,13.2
2018-07-10T06:39:02.228Z,13.2
2018-07-10T06:39:32.766Z,13.2
2018-07-10T06:40:03.085Z,13.1
2018-07-10T06:40:33.400Z,13.1
2018-07-10T06:42:00.521Z,13.2
2018-07-10T06:42:59.241Z,13.2
2018-07-10T06:43:58.473Z,13.2
2018-07-10T06:44:57.692Z,13.2
2018-07-10T06:45:56.813Z,13.2
2018-07-10T06:46:56.320Z,13.2
2018-07-10T06:47:55.755Z,13.2
2018-07-10T06:48:25.894Z,13.2
2018-07-10T06:48:56.533Z,13.1
2018-07-10T06:49:26.858Z,13.1
2018-07-10T06:49:57.497Z,13.1
2018-07-10T06:50:27.923Z,13.1
2018-07-10T06:50:58.566Z,13
2018-07-10T06:51:28.595Z,13
2018-07-10T06:52:53.402Z,13.1
2018-07-10T06:53:51.087Z,13.1
2018-07-10T06:54:50.412Z,13.1
2018-07-10T06:55:49.633Z,13.2
2018-07-10T06:56:48.753Z,13.1
2018-07-10T06:57:47.966Z,13.1
2018-07-10T06:58:47.688Z,13.1
2018-07-10T06:59:46.510Z,13.2
2018-07-10T07:00:46.550Z,13.3
2018-07-10T07:01:45.117Z,13.4
2018-07-10T07:02:44.331Z,13.5
2018-07-10T07:03:43.549Z,13.5
2018-07-10T07:04:42.771Z,13.6
2018-07-10T07:05:41.988Z,13.6
2018-07-10T07:06:41.317Z,13.6
2018-07-10T07:07:41.043Z,13.6
2018-07-10T07:08:39.884Z,13.6
2018-07-10T07:09:39.309Z,13.7
2018-07-10T07:10:38.533Z,13.7
2018-07-10T07:11:37.962Z,13.7
2018-07-10T07:12:36.896Z,13.6
2018-07-10T07:13:36.229Z,13.5
2018-07-10T07:14:35.336Z,13.6
2018-07-10T07:15:34.553Z,13.6
2018-07-10T07:16:33.926Z,13.6
2018-07-10T07:17:33.153Z,13.6
2018-07-10T07:18:32.368Z,13.7
2018-07-10T07:19:03.005Z,13.7
2018-07-10T07:19:33.535Z,13.7
2018-07-10T07:20:04.178Z,13.7
2018-07-10T07:20:34.810Z,13.7
2018-07-10T07:21:05.349Z,13.7
2018-07-10T07:22:29.847Z,13.7
2018-07-10T07:23:29.168Z,13.7
2018-07-10T07:24:28.101Z,13.7
2018-07-10T07:25:27.556Z,13.8
2018-07-10T07:26:26.881Z,13.8
2018-07-10T07:27:25.713Z,13.7
2018-07-10T07:28:24.934Z,13.7
2018-07-10T07:28:55.678Z,13.7
2018-07-10T07:29:25.596Z,13.7
2018-07-10T07:29:56.338Z,13.7
2018-07-10T07:30:26.489Z,13.7
2018-07-10T07:30:57.021Z,13.7
2018-07-10T07:31:27.654Z,13.7
2018-07-10T07:31:58.181Z,13.7
2018-07-10T07:32:28.826Z,13.8
2018-07-10T07:32:59.566Z,13.8
2018-07-10T07:34:20.545Z,13.8
2018-07-10T07:35:19.776Z,13.8
2018-07-10T07:36:19.145Z,13.9
2018-07-10T07:37:18.265Z,13.9
2018-07-10T07:38:18.093Z,14
2018-07-10T07:39:17.071Z,14
2018-07-10T07:41:15.783Z,14.1
2018-07-10T07:42:14.947Z,14.2
2018-07-10T07:43:14.161Z,14.2
2018-07-10T07:44:13.578Z,14.2
2018-07-10T07:45:12.913Z,14.3
2018-07-10T07:46:11.839Z,14.3
2018-07-10T07:47:11.171Z,14.2
2018-07-10T07:48:10.601Z,14.3
2018-07-10T07:49:09.923Z,14.3
2018-07-10T07:50:09.241Z,14.3
2018-07-10T07:51:07.959Z,14.4
2018-07-10T07:52:07.583Z,14.4
2018-07-10T07:53:06.693Z,14.3
2018-07-10T07:54:06.032Z,14.4
2018-07-10T07:55:05.357Z,14.4
2018-07-10T07:56:04.467Z,14.5
2018-07-10T07:57:03.682Z,14.5
2018-07-10T07:58:03.019Z,14.6
2018-07-10T07:59:02.258Z,14.6
2018-07-10T08:00:01.729Z,14.6
2018-07-10T08:01:00.871Z,14.6
2018-07-10T08:02:00.101Z,14.6
2018-07-10T08:02:59.214Z,14.4
2018-07-10T08:03:59.053Z,14.5
2018-07-10T08:04:58.155Z,14.4
2018-07-10T08:05:57.479Z,14.4
2018-07-10T08:06:56.590Z,14.4
2018-07-10T08:07:55.702Z,14.3
2018-07-10T08:08:55.029Z,14.3
2018-07-10T08:09:54.532Z,14.4
2018-07-10T08:10:53.749Z,14.4
2018-07-10T08:11:53.075Z,14.4
2018-07-10T08:12:23.966Z,14.4
2018-07-10T08:12:54.106Z,14.4
2018-07-10T08:13:51.603Z,14.4
2018-07-10T08:14:50.928Z,14.4
2018-07-10T08:15:50.255Z,14.4
2018-07-10T08:16:49.587Z,14.4
2018-07-10T08:17:48.910Z,14.4
2018-07-10T08:18:48.128Z,14.5
2018-07-10T08:19:47.458Z,14.5
2018-07-10T08:20:46.784Z,14.5
2018-07-10T08:21:45.932Z,14.5
2018-07-10T08:22:45.253Z,14.4
2018-07-10T08:23:44.471Z,14.5
2018-07-10T08:24:43.905Z,14.5
2018-07-10T08:25:43.229Z,14.5
2018-07-10T08:26:42.233Z,14.5
2018-07-10T08:27:12.862Z,14.5
2018-07-10T08:27:43.614Z,14.5
2018-07-10T08:28:13.755Z,14.5
2018-07-10T08:29:40.362Z,14.5
2018-07-10T08:30:39.189Z,14.5
2018-07-10T08:31:38.808Z,14.5
2018-07-10T08:32:38.231Z,14.5
2018-07-10T08:33:37.432Z,14.5
2018-07-10T08:34:36.326Z,14.6
2018-07-10T08:35:36.155Z,14.6
2018-07-10T08:36:34.871Z,14.5
2018-07-10T08:37:34.594Z,14.5
2018-07-10T08:38:33.813Z,14.5
2018-07-10T08:39:33.036Z,14.5
2018-07-10T08:40:32.261Z,14.5
2018-07-10T08:41:31.580Z,14.4
2018-07-10T08:42:30.903Z,14.4
2018-07-10T08:43:30.123Z,14.4
2018-07-10T08:44:29.457Z,14.4
2018-07-10T08:45:28.576Z,14.4
2018-07-10T08:46:28.013Z,14.4
2018-07-10T08:47:27.346Z,14.4
2018-07-10T08:48:26.684Z,14.4
2018-07-10T08:49:25.396Z,14.4
2018-07-10T08:50:25.335Z,14.4
2018-07-10T08:51:24.050Z,14.4
2018-07-10T08:52:23.163Z,14.4
2018-07-10T08:53:22.882Z,14.4
2018-07-10T08:54:22.253Z,14.4
2018-07-10T08:55:21.375Z,14.4
2018-07-10T08:56:20.608Z,14.4
2018-07-10T08:56:51.243Z,14.4
2018-07-10T08:57:21.928Z,14.3
2018-07-10T08:57:52.451Z,14.3
2018-07-10T08:59:18.449Z,14.3
2018-07-10T09:00:17.666Z,14.4
2018-07-10T09:01:16.896Z,14.4
2018-07-10T09:02:16.350Z,14.4
2018-07-10T09:03:15.565Z,14.4
2018-07-10T09:04:14.889Z,14.4
2018-07-10T09:05:14.217Z,14.4
2018-07-10T09:06:13.536Z,14.4
2018-07-10T09:06:44.165Z,14.4
2018-07-10T09:07:14.800Z,14.3
2018-07-10T09:07:45.544Z,14.3
2018-07-10T09:08:15.968Z,14.3
2018-07-10T09:08:46.609Z,14.3
2018-07-10T09:09:17.262Z,14.3
2018-07-10T09:09:47.696Z,14.3
2018-07-10T09:10:18.228Z,14.4
2018-07-10T09:10:48.650Z,14.4
2018-07-10T09:11:19.387Z,14.4
2018-07-10T09:11:49.413Z,14.4
2018-07-10T09:13:08.369Z,14.4
2018-07-10T09:14:07.802Z,14.4
2018-07-10T09:15:06.912Z,14.4
2018-07-10T09:16:06.355Z,14.4
2018-07-10T09:17:05.466Z,14.3
2018-07-10T09:18:04.794Z,14.3
2018-07-10T09:18:35.224Z,14.3
2018-07-10T09:20:03.532Z,14.3
2018-07-10T09:21:02.860Z,14.3
2018-07-10T09:22:02.088Z,14.4
2018-07-10T09:23:01.101Z,14.4
2018-07-10T09:24:00.322Z,14.4
2018-07-10T09:24:59.932Z,14.4
2018-07-10T09:25:59.371Z,14.4
2018-07-10T09:26:57.873Z,14.4
2018-07-10T09:27:57.709Z,14.4
2018-07-10T09:28:56.839Z,14.5
2018-07-10T09:29:56.281Z,14.5
2018-07-10T09:30:55.613Z,14.5
2018-07-10T09:31:54.982Z,14.5
2018-07-10T09:33:54.028Z,14.6
2018-07-10T09:34:52.976Z,14.6
2018-07-10T09:35:52.083Z,14.6
2018-07-10T09:36:51.408Z,14.6
2018-07-10T09:37:50.736Z,14.6
2018-07-10T09:38:49.574Z,14.7
2018-07-10T09:39:49.014Z,14.7
2018-07-10T09:40:48.234Z,14.8
2018-07-10T09:41:47.450Z,14.8
2018-07-10T09:42:47.289Z,14.8
2018-07-10T09:43:45.902Z,14.8
2018-07-10T09:44:45.637Z,14.8
2018-07-10T09:45:44.966Z,14.9
2018-07-10T09:46:44.409Z,14.8
2018-07-10T09:47:43.244Z,14.8
2018-07-10T09:48:42.667Z,14.8
2018-07-10T09:49:41.879Z,14.8
2018-07-10T09:50:12.304Z,14.8
2018-07-10T09:50:42.950Z,14.9
2018-07-10T09:51:13.481Z,14.9
2018-07-10T09:51:44.005Z,14.8
2018-07-10T09:52:39.699Z,14.9
2018-07-10T09:53:38.827Z,14.9
2018-07-10T09:55:37.543Z,15
2018-07-10T09:56:36.871Z,15
2018-07-10T09:57:36.193Z,15
2018-07-10T09:58:35.633Z,15
2018-07-10T09:59:34.735Z,15
2018-07-10T10:00:33.734Z,15
2018-07-10T10:01:04.160Z,15
2018-07-10T10:01:34.682Z,15
2018-07-10T10:02:32.611Z,15
2018-07-10T10:03:31.836Z,15
2018-07-10T10:04:31.168Z,15
2018-07-10T10:07:29.266Z,15
2018-07-10T10:08:29.154Z,15
2018-07-10T10:09:27.539Z,15
2018-07-10T10:10:26.979Z,15.1
2018-07-10T10:11:25.986Z,15.1
2018-07-10T10:12:25.311Z,15.1
2018-07-10T10:13:25.027Z,15.1
2018-07-10T10:14:24.349Z,15.1
2018-07-10T10:15:23.568Z,15.1
2018-07-10T10:17:21.774Z,15.2
2018-07-10T10:18:21.593Z,15.2
2018-07-10T10:19:20.415Z,15.2
2018-07-10T10:21:18.922Z,15.2
2018-07-10T10:22:18.349Z,15.2
2018-07-10T10:23:17.690Z,15.3
2018-07-10T10:24:17.050Z,15.2
2018-07-10T10:25:16.485Z,15.3
2018-07-10T10:26:15.828Z,15.3
2018-07-10T10:27:15.161Z,15.3
2018-07-10T10:28:14.096Z,15.3
2018-07-10T10:29:13.263Z,15.3
2018-07-10T10:30:12.882Z,15.3
2018-07-10T10:31:12.106Z,15.3
2018-07-10T10:32:11.430Z,15.2
2018-07-10T10:33:10.868Z,15.3
2018-07-10T10:34:09.980Z,15.3
2018-07-10T10:35:09.409Z,15.3
2018-07-10T10:36:08.637Z,15.3
2018-07-10T10:37:08.069Z,15.3
2018-07-10T10:38:07.285Z,15.3
2018-07-10T10:39:06.507Z,15.3
2018-07-10T10:40:05.838Z,15.4
2018-07-10T10:41:05.063Z,15.5
2018-07-10T10:42:04.397Z,15.6
2018-07-10T10:43:03.401Z,15.6
2018-07-10T10:44:02.910Z,15.6
2018-07-10T10:45:02.265Z,15.7
2018-07-10T10:45:32.903Z,15.7
2018-07-10T10:46:03.322Z,15.8
2018-07-10T10:46:33.748Z,15.8
2018-07-10T10:47:04.277Z,15.9
2018-07-10T10:47:34.912Z,15.9
2018-07-10T10:48:59.405Z,16
2018-07-10T10:49:58.837Z,16.1
2018-07-10T10:50:58.058Z,16.2
2018-07-10T10:51:57.385Z,16.3
2018-07-10T10:52:56.812Z,16.2
2018-07-10T10:53:56.074Z,16.2
2018-07-10T10:54:55.811Z,16.2
2018-07-10T10:55:26.066Z,16.2
2018-07-10T10:56:54.084Z,16.3
2018-07-10T10:57:24.737Z,16.3
2018-07-10T10:57:55.369Z,16.4
2018-07-10T10:58:25.687Z,16.4
2018-07-10T10:59:51.609Z,16.5
2018-07-10T11:00:50.875Z,16.6
2018-07-10T11:02:49.490Z,16.7
2018-07-10T11:03:49.223Z,16.8
2018-07-10T11:04:48.343Z,16.6
2018-07-10T11:05:47.670Z,16.7
2018-07-10T11:06:46.993Z,16.8
2018-07-10T11:07:46.221Z,16.9
2018-07-10T11:08:45.335Z,17
2018-07-10T11:09:44.946Z,17.1
2018-07-10T11:10:43.953Z,17.1
2018-07-10T11:11:43.784Z,17.1
2018-07-10T11:12:43.212Z,17.1
2018-07-10T11:13:42.065Z,17.1
2018-07-10T11:14:41.673Z,17.1
2018-07-10T11:15:41.108Z,17.1
2018-07-10T11:16:40.430Z,17.1
2018-07-10T11:17:39.650Z,17
2018-07-10T11:18:38.876Z,17
2018-07-10T11:19:38.316Z,16.9
2018-07-10T11:20:37.646Z,17
2018-07-10T11:21:36.977Z,16.9
2018-07-10T11:22:36.411Z,17
2018-07-10T11:23:35.733Z,16.8
2018-07-10T11:24:34.847Z,16.8
2018-07-10T11:25:34.076Z,16.8
2018-07-10T11:26:33.082Z,16.8
2018-07-10T11:27:33.020Z,16.8
2018-07-10T11:28:03.151Z,16.8
2018-07-10T11:28:33.782Z,16.7
2018-07-10T11:29:04.092Z,16.7
2018-07-10T11:29:34.413Z,16.6
2018-07-10T11:30:04.714Z,16.6
2018-07-10T11:31:29.999Z,16.6
2018-07-10T11:32:29.242Z,16.6
2018-07-10T11:33:28.581Z,16.7
2018-07-10T11:34:28.019Z,16.6
2018-07-10T11:35:27.454Z,16.7
2018-07-10T11:36:26.782Z,16.7
2018-07-10T11:37:26.113Z,16.7
2018-07-10T11:38:25.447Z,16.7
2018-07-10T11:38:55.981Z,16.7
2018-07-10T11:39:27.737Z,16.7
2018-07-10T11:39:57.042Z,16.7
2018-07-10T11:41:23.543Z,16.6
2018-07-10T11:42:22.651Z,16.6
2018-07-10T11:43:22.081Z,16.6
2018-07-10T11:44:21.427Z,16.6
2018-07-10T11:45:20.748Z,16.7
2018-07-10T11:46:19.874Z,16.7
2018-07-10T11:47:19.096Z,16.8
2018-07-10T11:48:18.819Z,16.8
2018-07-10T11:49:17.921Z,16.9
2018-07-10T11:50:17.252Z,16.9
2018-07-10T11:51:16.722Z,16.9
2018-07-10T11:52:15.952Z,16.9
2018-07-10T11:53:15.389Z,17
2018-07-10T11:55:13.890Z,17
2018-07-10T11:56:13.219Z,17
2018-07-10T11:57:12.441Z,17.1
2018-07-10T11:58:12.162Z,17.2
2018-07-10T11:59:11.608Z,17.2
2018-07-10T12:00:10.932Z,17.3
2018-07-10T12:01:10.153Z,17.5
2018-07-10T12:02:09.487Z,17.5
2018-07-10T12:04:08.103Z,17.7
2018-07-10T12:05:07.121Z,17.8
2018-07-10T12:06:06.854Z,17.9
2018-07-10T12:07:06.070Z,18
2018-07-10T12:08:05.287Z,18
2018-07-10T12:09:04.616Z,18.1
2018-07-10T12:10:04.225Z,18.1
2018-07-10T12:11:03.556Z,18.2
2018-07-10T12:12:02.772Z,18.3
2018-07-10T12:13:01.669Z,18.4
2018-07-10T12:14:01.279Z,18.4
2018-07-10T12:15:00.717Z,18.3
2018-07-10T12:15:59.827Z,18.3
2018-07-10T12:16:59.657Z,18.2
2018-07-10T12:17:59.082Z,18.1
2018-07-10T12:18:58.403Z,18.1
2018-07-10T12:19:57.728Z,18
2018-07-10T12:20:56.838Z,17.9
2018-07-10T12:21:56.056Z,17.9
2018-07-10T12:22:55.276Z,17.9
2018-07-10T12:23:55.000Z,17.9
2018-07-10T12:24:54.438Z,17.9
2018-07-10T12:25:24.354Z,17.9
2018-07-10T12:25:55.095Z,17.8
2018-07-10T12:26:25.619Z,17.8
2018-07-10T12:26:56.160Z,17.7
2018-07-10T12:27:52.601Z,17.7
2018-07-10T12:28:51.924Z,17.8
2018-07-10T12:29:51.401Z,17.7
2018-07-10T12:30:50.732Z,17.7
2018-07-10T12:31:49.561Z,17.7
2018-07-10T12:32:49.384Z,17.7
2018-07-10T12:33:48.806Z,17.8
2018-07-10T12:34:47.953Z,17.9
2018-07-10T12:35:18.210Z,17.9
2018-07-10T12:35:48.746Z,17.8
2018-07-10T12:36:19.386Z,17.8
2018-07-10T12:36:50.029Z,17.8
2018-07-10T12:37:20.671Z,17.8
2018-07-10T12:37:51.414Z,17.9
2018-07-10T12:38:21.559Z,17.9
2018-07-10T12:39:44.323Z,18.1
2018-07-10T12:40:44.056Z,18.1
2018-07-10T12:41:43.776Z,18.2
2018-07-10T12:42:42.360Z,18.5
2018-07-10T12:44:41.577Z,18.9
2018-07-10T12:45:41.020Z,18.8
2018-07-10T12:46:40.037Z,18.7
2018-07-10T12:47:39.265Z,18.7